Time;durP1;ratioP1;P1;durP2;ratioP2;P2;SDS_P1;SDS_P2;PMS_P1;PMS_P2;Temp;Humidity;BMP_temperature;BMP_pressure;BME280_temperature;BME280_humidity;BME280_pressure;Samples;Min_cycle;Max_cycle;Signal;HPM_P1;HPM_P2
2021/12/22 00:01:24;;;;;;;16.15;4.85;;;;;;;;;;5032271;28;20025;-57
2021/12/22 00:03:50;;;;;;;12.77;5.10;;;;;;;;;;5036980;28;20471;-52
2021/12/22 00:06:20;;;;;;;11.27;5.50;;;;;;;;;;5030176;28;20055;-54
2021/12/22 00:08:46;;;;;;;10.65;4.82;;;;;;;;;;5036778;28;20038;-56
2021/12/22 00:11:12;;;;;;;14.40;5.43;;;;;;;;;;5027706;28;20048;-56
2021/12/22 00:13:38;;;;;;;10.98;4.60;;;;;;;;;;5034969;28;20026;-57
2021/12/22 00:16:04;;;;;;;13.30;4.90;;;;;;;;;;5042671;28;20040;-56
2021/12/22 00:18:30;;;;;;;16.30;5.28;;;;;;;;;;5040571;28;20620;-56
2021/12/22 00:20:57;;;;;;;16.45;5.78;;;;;;;;;;5031519;28;20059;-57
2021/12/22 00:23:23;;;;;;;13.65;5.05;;;;;;;;;;5027796;28;20056;-55
2021/12/22 00:25:49;;;;;;;15.35;6.40;;;;;;;;;;5040706;28;20021;-56
2021/12/22 00:28:15;;;;;;;13.57;5.28;;;;;;;;;;5037261;28;20029;-57
2021/12/22 00:30:41;;;;;;;10.75;5.53;;;;;;;;;;5038708;28;20036;-57
2021/12/22 00:33:10;;;;;;;14.85;5.75;;;;;;;;;;5037822;28;20030;-56
2021/12/22 00:35:42;;;;;;;12.88;5.45;;;;;;;;;;5033100;28;20047;-55
2021/12/22 00:38:10;;;;;;;8.50;5.10;;;;;;;;;;5036277;28;20049;-56
2021/12/22 00:40:36;;;;;;;15.18;5.75;;;;;;;;;;5046653;28;20091;-57
2021/12/22 00:43:02;;;;;;;11.27;5.15;;;;;;;;;;5034787;28;20060;-53
2021/12/22 00:45:31;;;;;;;12.10;5.85;;;;;;;;;;5030941;28;20469;-58
2021/12/22 00:47:57;;;;;;;11.75;4.85;;;;;;;;;;5023109;28;20719;-58
2021/12/22 00:50:23;;;;;;;12.27;5.85;;;;;;;;;;5036194;28;20037;-58
2021/12/22 00:52:49;;;;;;;13.07;5.78;;;;;;;;;;5039426;28;20107;-57
2021/12/22 00:55:18;;;;;;;11.82;5.20;;;;;;;;;;5040182;28;20044;-57
2021/12/22 00:57:45;;;;;;;10.10;5.05;;;;;;;;;;5029472;28;20511;-57
2021/12/22 01:00:11;;;;;;;13.70;5.40;;;;;;;;;;5028254;28;20117;-58
2021/12/22 01:02:37;;;;;;;11.23;5.00;;;;;;;;;;5041750;28;20091;-58
2021/12/22 01:05:04;;;;;;;9.95;5.20;;;;;;;;;;5047027;28;20026;-55
2021/12/22 01:07:30;;;;;;;11.65;5.00;;;;;;;;;;5024832;28;20203;-58
2021/12/22 01:09:56;;;;;;;13.38;5.38;;;;;;;;;;5033118;28;20037;-58
2021/12/22 01:12:22;;;;;;;9.45;5.03;;;;;;;;;;5032730;28;20028;-55
2021/12/22 01:14:48;;;;;;;12.70;5.95;;;;;;;;;;5044364;28;20417;-56
2021/12/22 01:17:15;;;;;;;12.60;5.93;;;;;;;;;;5034992;28;20116;-55
2021/12/22 01:19:59;;;;;;;10.73;5.85;;;;;;;;;;5027873;28;20041;-57
2021/12/22 01:25:02;;;;;;;9.18;5.35;;;;;;;;;;5034818;28;20056;-56
2021/12/22 01:27:33;;;;;;;12.35;5.38;;;;;;;;;;5025189;28;20091;-55
2021/12/22 01:29:59;;;;;;;9.52;5.55;;;;;;;;;;5025187;28;20030;-57
2021/12/22 01:32:26;;;;;;;11.63;4.70;;;;;;;;;;5027383;28;20070;-55
2021/12/22 01:34:52;;;;;;;13.65;4.90;;;;;;;;;;5026254;28;20126;-56
2021/12/22 01:37:18;;;;;;;10.45;4.55;;;;;;;;;;5028755;28;20087;-54
2021/12/22 01:39:44;;;;;;;7.45;4.65;;;;;;;;;;5031510;28;20041;-56
2021/12/22 01:42:10;;;;;;;12.15;5.55;;;;;;;;;;5033280;28;20041;-56
2021/12/22 01:44:49;;;;;;;7.32;4.53;;;;;;;;;;5025813;28;20100;-56
2021/12/22 01:50:00;;;;;;;9.23;5.03;;;;;;;;;;5028014;28;20648;-57
2021/12/22 01:52:26;;;;;;;10.32;5.38;;;;;;;;;;5027182;28;20034;-58
2021/12/22 01:55:04;;;;;;;11.25;4.65;;;;;;;;;;5033566;28;20108;-57
2021/12/22 01:57:30;;;;;;;9.25;4.70;;;;;;;;;;5028313;28;20192;-53
2021/12/22 01:59:56;;;;;;;10.15;4.85;;;;;;;;;;5027677;28;20034;-55
2021/12/22 02:02:23;;;;;;;11.10;5.10;;;;;;;;;;5019557;28;20037;-53
2021/12/22 02:04:49;;;;;;;10.95;5.10;;;;;;;;;;5029497;28;20548;-51
2021/12/22 02:07:15;;;;;;;8.48;5.03;;;;;;;;;;5026192;28;20041;-51
2021/12/22 02:10:06;;;;;;;11.65;4.93;;;;;;;;;;5021982;28;20408;-53
2021/12/22 02:12:37;;;;;;;10.30;4.75;;;;;;;;;;5029423;28;20037;-51
2021/12/22 02:15:05;;;;;;;10.52;5.45;;;;;;;;;;5030011;28;20537;-51
2021/12/22 02:17:31;;;;;;;8.68;4.03;;;;;;;;;;5027256;28;20037;-54
2021/12/22 02:19:57;;;;;;;10.20;4.55;;;;;;;;;;5023374;28;20025;-54
2021/12/22 02:22:23;;;;;;;8.50;4.28;;;;;;;;;;5031717;28;20331;-53
2021/12/22 02:24:58;;;;;;;10.55;4.55;;;;;;;;;;5030778;28;20124;-56
2021/12/22 02:27:43;;;;;;;5.80;3.63;;;;;;;;;;5018028;28;20025;-53
2021/12/22 02:30:16;;;;;;;15.95;3.97;;;;;;;;;;5029954;28;20030;-53
2021/12/22 02:35:12;;;;;;;7.45;3.17;;;;;;;;;;5031869;28;19924;-53
2021/12/22 02:37:44;;;;;;;6.43;3.45;;;;;;;;;;5020657;28;20029;-51
2021/12/22 02:40:14;;;;;;;7.15;3.00;;;;;;;;;;5026337;28;20477;-52
2021/12/22 02:42:40;;;;;;;7.57;2.90;;;;;;;;;;5025654;28;20033;-51
2021/12/22 02:45:07;;;;;;;5.70;3.35;;;;;;;;;;5031022;28;20056;-57
2021/12/22 02:47:33;;;;;;;4.72;3.03;;;;;;;;;;5022529;28;20436;-57
2021/12/22 02:49:59;;;;;;;6.03;3.17;;;;;;;;;;5022380;28;20025;-55
2021/12/22 02:52:33;;;;;;;5.60;2.70;;;;;;;;;;5023288;28;20038;-56
2021/12/22 02:54:59;;;;;;;4.00;2.50;;;;;;;;;;5028995;28;20029;-55
2021/12/22 02:57:33;;;;;;;6.65;2.92;;;;;;;;;;5025343;28;20085;-55
2021/12/22 03:05:10;;;;;;;4.30;2.80;;;;;;;;;;5029935;28;20121;-55
2021/12/22 03:07:37;;;;;;;6.43;3.67;;;;;;;;;;5033028;28;20351;-56
2021/12/22 03:10:08;;;;;;;8.23;3.08;;;;;;;;;;5033800;28;20105;-53
2021/12/22 03:12:36;;;;;;;9.65;3.15;;;;;;;;;;5023588;28;20061;-55
2021/12/22 03:15:05;;;;;;;6.32;3.15;;;;;;;;;;5040049;28;20021;-57
2021/12/22 03:17:31;;;;;;;5.65;2.95;;;;;;;;;;5034485;28;20037;-54
2021/12/22 03:19:57;;;;;;;6.00;3.30;;;;;;;;;;5040508;28;20044;-57
2021/12/22 03:22:23;;;;;;;7.38;2.78;;;;;;;;;;5047085;28;20099;-55
2021/12/22 03:24:51;;;;;;;5.75;2.72;;;;;;;;;;5039321;28;20032;-53
2021/12/22 03:27:17;;;;;;;4.43;2.70;;;;;;;;;;5037157;28;20040;-52
2021/12/22 03:29:43;;;;;;;9.93;3.00;;;;;;;;;;5029268;28;20025;-52
2021/12/22 03:32:10;;;;;;;9.30;3.00;;;;;;;;;;5036418;28;20487;-52
2021/12/22 03:34:37;;;;;;;7.95;3.15;;;;;;;;;;5027621;28;20071;-51
2021/12/22 03:37:03;;;;;;;6.60;2.80;;;;;;;;;;5029528;28;20351;-51
2021/12/22 03:39:29;;;;;;;9.23;2.78;;;;;;;;;;5026939;28;20029;-53
2021/12/22 03:41:56;;;;;;;4.85;2.20;;;;;;;;;;5032423;28;20116;-52
2021/12/22 03:44:22;;;;;;;3.72;2.60;;;;;;;;;;5029260;28;20043;-54
2021/12/22 03:46:49;;;;;;;5.70;2.83;;;;;;;;;;5030574;28;20462;-54
2021/12/22 03:49:15;;;;;;;7.65;3.42;;;;;;;;;;5031932;28;20034;-56
2021/12/22 03:51:42;;;;;;;6.03;2.78;;;;;;;;;;5024242;28;20115;-52
2021/12/22 03:54:08;;;;;;;4.93;2.83;;;;;;;;;;5023203;28;20034;-52
2021/12/22 03:56:35;;;;;;;5.07;2.65;;;;;;;;;;5033354;28;20368;-56
2021/12/22 03:59:01;;;;;;;5.70;3.15;;;;;;;;;;5034203;28;20038;-53
2021/12/22 04:01:27;;;;;;;6.47;3.25;;;;;;;;;;5022419;28;20505;-55
2021/12/22 04:03:57;;;;;;;7.60;3.40;;;;;;;;;;5025026;28;20539;-56
2021/12/22 04:06:23;;;;;;;8.52;3.03;;;;;;;;;;5022172;28;20038;-56
2021/12/22 04:08:49;;;;;;;8.35;3.60;;;;;;;;;;5032880;28;20044;-56
2021/12/22 04:11:15;;;;;;;5.20;3.10;;;;;;;;;;5028674;28;20141;-57
2021/12/22 04:13:41;;;;;;;9.73;3.15;;;;;;;;;;5031951;28;20444;-56
2021/12/22 04:16:07;;;;;;;5.43;3.05;;;;;;;;;;5029041;28;20033;-56
2021/12/22 04:18:33;;;;;;;10.57;3.58;;;;;;;;;;5028514;28;20456;-52
2021/12/22 04:20:59;;;;;;;16.35;4.32;;;;;;;;;;5030413;28;20034;-54
2021/12/22 04:23:25;;;;;;;6.90;3.70;;;;;;;;;;5033071;28;20034;-54
2021/12/22 04:25:51;;;;;;;6.07;3.28;;;;;;;;;;5030779;28;20489;-56
2021/12/22 04:28:17;;;;;;;7.35;3.72;;;;;;;;;;5028575;28;20780;-51
2021/12/22 04:30:47;;;;;;;4.65;3.22;;;;;;;;;;5029876;28;20503;-55
2021/12/22 04:33:14;;;;;;;6.53;3.78;;;;;;;;;;5026627;28;20018;-54
2021/12/22 04:35:40;;;;;;;7.28;3.90;;;;;;;;;;5026669;28;20128;-53
2021/12/22 04:38:06;;;;;;;7.40;4.03;;;;;;;;;;5024151;28;20120;-51
2021/12/22 04:40:32;;;;;;;9.13;3.50;;;;;;;;;;5031361;28;20029;-54
2021/12/22 04:42:58;;;;;;;7.25;4.00;;;;;;;;;;5030946;28;20120;-53
2021/12/22 04:45:24;;;;;;;7.45;3.42;;;;;;;;;;5029223;28;20112;-53
2021/12/22 04:47:51;;;;;;;9.85;4.35;;;;;;;;;;5029121;28;20061;-53
2021/12/22 04:50:18;;;;;;;9.30;4.25;;;;;;;;;;5031897;28;20052;-53
2021/12/22 04:53:12;;;;;;;7.70;4.70;;;;;;;;;;5025983;28;20497;-52
2021/12/22 04:55:32;;;;;;;8.32;4.45;;;;;;;;;;5028587;28;20042;-52
2021/12/22 04:57:59;;;;;;;10.60;4.38;;;;;;;;;;5030117;28;20029;-52
2021/12/22 05:00:27;;;;;;;6.88;4.32;;;;;;;;;;5021270;28;20061;-53
2021/12/22 05:02:56;;;;;;;8.00;4.63;;;;;;;;;;5027972;28;20026;-53
2021/12/22 05:05:23;;;;;;;9.43;4.38;;;;;;;;;;5025382;28;20037;-54
2021/12/22 05:07:49;;;;;;;12.35;5.95;;;;;;;;;;5025499;28;20042;-55
2021/12/22 05:10:15;;;;;;;8.40;5.32;;;;;;;;;;5030887;28;20040;-53
2021/12/22 05:12:42;;;;;;;11.80;4.90;;;;;;;;;;5029993;28;20032;-51
2021/12/22 05:15:08;;;;;;;10.30;5.30;;;;;;;;;;5028522;28;20030;-52
2021/12/22 05:20:10;;;;;;;9.05;5.03;;;;;;;;;;5028837;28;20040;-56
2021/12/22 05:22:36;;;;;;;11.15;4.97;;;;;;;;;;5031203;28;20025;-54
2021/12/22 05:25:03;;;;;;;9.63;5.15;;;;;;;;;;5019955;28;20452;-55
2021/12/22 05:27:29;;;;;;;11.43;5.75;;;;;;;;;;5022602;28;20462;-56
2021/12/22 05:29:55;;;;;;;10.70;5.70;;;;;;;;;;5029416;28;20100;-54
2021/12/22 05:32:25;;;;;;;10.80;5.43;;;;;;;;;;5028215;28;20366;-55
2021/12/22 05:34:52;;;;;;;14.20;5.55;;;;;;;;;;5027647;28;20053;-56
2021/12/22 05:37:18;;;;;;;8.35;4.70;;;;;;;;;;5027629;28;20048;-53
2021/12/22 05:39:44;;;;;;;8.43;5.30;;;;;;;;;;5032043;28;20026;-53
2021/12/22 05:42:10;;;;;;;12.85;5.45;;;;;;;;;;5026320;28;20100;-57
2021/12/22 05:44:39;;;;;;;12.85;4.63;;;;;;;;;;5031566;28;20029;-52
2021/12/22 05:47:05;;;;;;;10.10;4.75;;;;;;;;;;5033988;28;20037;-54
2021/12/22 05:49:31;;;;;;;12.95;5.05;;;;;;;;;;5025877;28;20031;-53
2021/12/22 05:51:57;;;;;;;9.43;4.90;;;;;;;;;;5027677;28;20021;-51
2021/12/22 05:54:23;;;;;;;13.27;5.18;;;;;;;;;;5027355;28;20056;-51
2021/12/22 05:56:49;;;;;;;12.00;5.32;;;;;;;;;;5025179;28;20037;-53
2021/12/22 05:59:15;;;;;;;11.25;5.75;;;;;;;;;;5027495;28;20032;-52
2021/12/22 06:01:41;;;;;;;9.85;4.63;;;;;;;;;;5020517;28;20123;-51
2021/12/22 06:04:07;;;;;;;10.25;5.30;;;;;;;;;;5022677;28;20121;-53
2021/12/22 06:06:33;;;;;;;8.90;4.90;;;;;;;;;;5025014;28;20567;-54
2021/12/22 06:08:59;;;;;;;11.85;4.80;;;;;;;;;;5026382;28;20035;-52
2021/12/22 06:11:25;;;;;;;11.65;4.80;;;;;;;;;;5032464;28;20393;-55
2021/12/22 06:13:51;;;;;;;9.77;5.43;;;;;;;;;;5033428;28;20087;-51
2021/12/22 06:16:17;;;;;;;12.10;5.28;;;;;;;;;;5032209;28;20037;-51
2021/12/22 06:18:45;;;;;;;9.23;5.07;;;;;;;;;;5034914;28;20025;-52
2021/12/22 06:21:12;;;;;;;10.93;5.18;;;;;;;;;;5027423;28;20025;-53
2021/12/22 06:23:38;;;;;;;12.98;5.43;;;;;;;;;;5028820;28;20461;-52
2021/12/22 06:26:04;;;;;;;9.85;5.05;;;;;;;;;;5034028;28;20033;-55
2021/12/22 06:28:30;;;;;;;10.60;5.05;;;;;;;;;;5025271;28;20030;-55
2021/12/22 06:30:56;;;;;;;13.32;5.57;;;;;;;;;;5024216;28;20105;-52
2021/12/22 06:33:22;;;;;;;13.50;6.13;;;;;;;;;;5031838;28;20029;-51
2021/12/22 06:35:48;;;;;;;12.13;5.95;;;;;;;;;;5030148;28;20448;-55
2021/12/22 06:38:14;;;;;;;10.85;5.45;;;;;;;;;;5031514;28;20101;-54
2021/12/22 06:40:41;;;;;;;11.60;5.82;;;;;;;;;;5031014;28;20145;-55
2021/12/22 06:43:07;;;;;;;11.27;5.90;;;;;;;;;;5030134;28;20037;-52
2021/12/22 06:45:33;;;;;;;10.60;5.45;;;;;;;;;;5030787;28;20033;-53
2021/12/22 06:47:59;;;;;;;15.18;5.78;;;;;;;;;;5026114;28;20049;-52
2021/12/22 06:50:25;;;;;;;12.43;6.63;;;;;;;;;;5029452;28;20124;-51
2021/12/22 06:52:51;;;;;;;13.85;6.60;;;;;;;;;;5028102;28;20091;-52
2021/12/22 06:55:17;;;;;;;15.80;6.97;;;;;;;;;;5026313;28;20018;-54
2021/12/22 06:57:43;;;;;;;20.52;8.93;;;;;;;;;;5029726;28;20072;-52
2021/12/22 07:00:11;;;;;;;31.33;11.32;;;;;;;;;;5024765;28;20033;-51
2021/12/22 07:02:38;;;;;;;46.22;16.17;;;;;;;;;;5028418;28;20393;-51
2021/12/22 07:05:05;;;;;;;49.53;17.75;;;;;;;;;;5021857;28;20501;-54
2021/12/22 07:07:31;;;;;;;38.85;14.52;;;;;;;;;;5027137;28;20021;-53
2021/12/22 07:09:57;;;;;;;37.88;15.13;;;;;;;;;;5029650;28;20053;-51
2021/12/22 07:12:23;;;;;;;38.03;15.70;;;;;;;;;;5028617;28;20049;-54
2021/12/22 07:14:49;;;;;;;43.50;15.07;;;;;;;;;;5030507;28;20032;-50
2021/12/22 07:17:15;;;;;;;35.50;13.30;;;;;;;;;;5030612;28;20059;-51
2021/12/22 07:19:41;;;;;;;35.63;13.75;;;;;;;;;;5030793;28;21780;-54
2021/12/22 07:22:07;;;;;;;31.50;11.90;;;;;;;;;;5029754;28;20033;-56
2021/12/22 07:24:33;;;;;;;23.50;9.98;;;;;;;;;;5020619;28;20109;-54
2021/12/22 07:27:00;;;;;;;22.20;8.75;;;;;;;;;;5028574;28;20026;-51
2021/12/22 07:29:26;;;;;;;19.10;9.30;;;;;;;;;;5029271;28;20677;-54
2021/12/22 07:31:52;;;;;;;24.48;9.40;;;;;;;;;;5029321;28;20035;-53
2021/12/22 07:34:36;;;;;;;17.52;8.55;;;;;;;;;;5029836;28;20045;-55
2021/12/22 07:37:05;;;;;;;22.83;9.40;;;;;;;;;;5028428;28;20030;-53
2021/12/22 07:39:31;;;;;;;20.08;9.07;;;;;;;;;;5028480;28;20093;-54
2021/12/22 07:41:57;;;;;;;26.67;8.27;;;;;;;;;;5029437;28;20053;-56
2021/12/22 07:44:23;;;;;;;15.73;7.95;;;;;;;;;;5030834;28;20030;-51
2021/12/22 07:46:49;;;;;;;21.25;8.65;;;;;;;;;;5030891;28;20496;-53
2021/12/22 07:49:15;;;;;;;19.95;8.10;;;;;;;;;;5030883;28;20454;-54
2021/12/22 07:51:41;;;;;;;19.67;7.75;;;;;;;;;;5024876;28;20033;-50
2021/12/22 07:54:06;;;;;;;18.33;8.30;;;;;;;;;;5031235;28;20025;-53
2021/12/22 07:56:32;;;;;;;18.23;8.45;;;;;;;;;;5027123;28;20863;-51
2021/12/22 07:58:58;;;;;;;16.35;8.00;;;;;;;;;;5033738;28;20395;-51
2021/12/22 08:01:24;;;;;;;20.83;8.20;;;;;;;;;;5027826;28;20025;-51
2021/12/22 08:03:50;;;;;;;15.48;7.35;;;;;;;;;;5033451;28;20087;-53
2021/12/22 08:06:16;;;;;;;15.68;6.75;;;;;;;;;;5028945;28;20383;-52
2021/12/22 08:08:42;;;;;;;13.35;6.28;;;;;;;;;;5025142;28;20038;-53
2021/12/22 08:11:09;;;;;;;12.90;6.93;;;;;;;;;;5033179;28;20033;-51
2021/12/22 08:13:35;;;;;;;12.38;6.55;;;;;;;;;;5025038;28;20033;-51
2021/12/22 08:16:01;;;;;;;13.65;6.90;;;;;;;;;;5033966;28;20086;-52
2021/12/22 08:18:27;;;;;;;12.43;6.10;;;;;;;;;;5034532;28;20040;-52
2021/12/22 08:20:53;;;;;;;15.30;6.82;;;;;;;;;;5030693;28;20029;-54
2021/12/22 08:23:19;;;;;;;15.15;7.20;;;;;;;;;;5029601;28;20041;-53
2021/12/22 08:25:46;;;;;;;18.02;7.13;;;;;;;;;;5030494;28;20021;-54
2021/12/22 08:28:12;;;;;;;14.65;7.25;;;;;;;;;;5033284;28;20036;-55
2021/12/22 08:30:38;;;;;;;17.05;7.35;;;;;;;;;;5030524;28;20060;-52
2021/12/22 08:33:15;;;;;;;17.85;7.22;;;;;;;;;;5032592;28;20048;-52
2021/12/22 08:41:11;;;;;;;18.80;6.45;;;;;;;;;;5033117;28;20412;-52
2021/12/22 08:43:37;;;;;;;14.57;6.95;;;;;;;;;;5031693;28;20033;-52
2021/12/22 08:46:03;;;;;;;21.13;8.27;;;;;;;;;;5033834;28;20474;-54
2021/12/22 08:48:29;;;;;;;21.92;7.45;;;;;;;;;;5033616;28;20033;-55
2021/12/22 08:50:55;;;;;;;18.45;7.32;;;;;;;;;;5033383;28;20029;-55
2021/12/22 08:53:21;;;;;;;18.70;7.18;;;;;;;;;;5033503;28;20079;-55
2021/12/22 08:55:47;;;;;;;20.05;6.45;;;;;;;;;;5032656;28;20052;-53
2021/12/22 08:58:13;;;;;;;18.92;8.00;;;;;;;;;;5021229;28;20021;-51
2021/12/22 09:00:39;;;;;;;18.33;8.05;;;;;;;;;;5031458;28;20034;-54
2021/12/22 09:03:05;;;;;;;21.85;7.95;;;;;;;;;;5030275;28;20090;-54
2021/12/22 09:05:31;;;;;;;20.38;8.57;;;;;;;;;;5029224;28;20030;-53
2021/12/22 09:07:57;;;;;;;25.00;9.00;;;;;;;;;;5023015;28;20429;-53
2021/12/22 09:10:23;;;;;;;19.42;9.18;;;;;;;;;;5029498;28;20029;-56
2021/12/22 09:12:49;;;;;;;23.20;10.25;;;;;;;;;;5024193;28;20037;-52
2021/12/22 09:15:17;;;;;;;20.23;9.45;;;;;;;;;;5028815;28;20033;-52
2021/12/22 09:17:43;;;;;;;22.63;9.98;;;;;;;;;;5029723;28;20028;-54
2021/12/22 09:20:09;;;;;;;18.65;9.60;;;;;;;;;;5032814;28;20112;-52
2021/12/22 09:22:35;;;;;;;26.63;9.27;;;;;;;;;;5031951;28;20071;-51
2021/12/22 09:25:03;;;;;;;25.25;10.38;;;;;;;;;;5030007;28;20526;-52
2021/12/22 09:27:28;;;;;;;26.35;10.05;;;;;;;;;;5024662;28;20033;-51
2021/12/22 09:29:55;;;;;;;28.33;10.50;;;;;;;;;;5037877;28;20083;-56
2021/12/22 09:32:21;;;;;;;23.85;10.27;;;;;;;;;;5036393;28;20043;-51
2021/12/22 09:34:49;;;;;;;25.52;9.95;;;;;;;;;;5028510;28;20045;-53
2021/12/22 09:37:16;;;;;;;22.40;10.27;;;;;;;;;;5033547;28;20116;-52
2021/12/22 09:39:42;;;;;;;23.60;10.52;;;;;;;;;;5028891;28;20041;-51
2021/12/22 09:42:08;;;;;;;19.08;9.43;;;;;;;;;;5032311;28;20088;-54
2021/12/22 09:44:42;;;;;;;24.92;10.93;;;;;;;;;;5027842;28;20129;-57
2021/12/22 09:47:08;;;;;;;23.40;10.05;;;;;;;;;;5034944;28;20398;-55
2021/12/22 09:49:58;;;;;;;21.00;9.68;;;;;;;;;;5030773;28;20112;-57
2021/12/22 09:52:23;;;;;;;20.80;9.32;;;;;;;;;;5020811;28;20116;-53
2021/12/22 09:54:50;;;;;;;20.58;10.10;;;;;;;;;;5022733;28;20072;-57
2021/12/22 09:57:17;;;;;;;22.80;8.77;;;;;;;;;;5022001;28;20033;-55
2021/12/22 09:59:45;;;;;;;22.60;9.38;;;;;;;;;;5030917;28;20389;-55
2021/12/22 10:02:11;;;;;;;18.08;9.55;;;;;;;;;;5024616;28;20036;-56
2021/12/22 10:04:37;;;;;;;22.73;10.63;;;;;;;;;;5029645;28;20029;-56
2021/12/22 10:07:03;;;;;;;21.50;10.13;;;;;;;;;;5031407;28;20029;-52
2021/12/22 10:09:31;;;;;;;18.92;9.52;;;;;;;;;;5031321;28;20029;-55
2021/12/22 10:11:57;;;;;;;20.65;9.13;;;;;;;;;;5025640;28;20108;-56
2021/12/22 10:14:27;;;;;;;21.83;9.70;;;;;;;;;;5032030;28;20105;-55
2021/12/22 10:16:54;;;;;;;22.02;9.68;;;;;;;;;;5025094;28;20113;-53
2021/12/22 10:19:21;;;;;;;18.70;9.32;;;;;;;;;;5031505;28;20036;-56
2021/12/22 10:22:05;;;;;;;22.48;9.82;;;;;;;;;;5031583;28;20104;-55
2021/12/22 10:24:39;;;;;;;17.42;9.32;;;;;;;;;;5032222;28;20030;-53
2021/12/22 10:27:06;;;;;;;22.92;9.93;;;;;;;;;;5030170;28;20045;-55
2021/12/22 10:29:33;;;;;;;15.93;8.27;;;;;;;;;;5040405;28;20455;-52
2021/12/22 10:32:10;;;;;;;18.85;8.98;;;;;;;;;;5028245;28;20021;-53
2021/12/22 10:34:36;;;;;;;19.63;8.23;;;;;;;;;;5032162;28;20053;-53
2021/12/22 10:37:02;;;;;;;18.40;8.57;;;;;;;;;;5027724;28;20048;-54
2021/12/22 10:39:28;;;;;;;16.02;7.82;;;;;;;;;;5023282;28;20113;-55
2021/12/22 10:42:01;;;;;;;21.58;9.18;;;;;;;;;;5033504;28;20029;-51
2021/12/22 10:44:37;;;;;;;16.38;8.75;;;;;;;;;;5035875;28;20676;-56
2021/12/22 10:47:22;;;;;;;20.15;9.50;;;;;;;;;;5034257;28;20079;-55
2021/12/22 10:50:01;;;;;;;15.88;8.07;;;;;;;;;;5034122;28;20052;-53
2021/12/22 10:52:27;;;;;;;16.70;8.15;;;;;;;;;;5026964;28;20029;-52
2021/12/22 10:55:06;;;;;;;21.73;8.73;;;;;;;;;;5029731;28;20148;-53
2021/12/22 10:57:35;;;;;;;18.70;8.73;;;;;;;;;;5030285;28;20440;-56
2021/12/22 11:00:01;;;;;;;18.58;8.30;;;;;;;;;;5023151;28;20433;-52
2021/12/22 11:02:34;;;;;;;15.48;7.43;;;;;;;;;;5031039;28;20116;-53
2021/12/22 11:05:06;;;;;;;13.90;7.50;;;;;;;;;;5033158;28;20087;-54
2021/12/22 11:07:40;;;;;;;18.33;8.65;;;;;;;;;;5034994;28;20029;-52
2021/12/22 11:10:22;;;;;;;16.13;7.70;;;;;;;;;;5030582;28;20049;-53
2021/12/22 11:12:59;;;;;;;15.10;6.75;;;;;;;;;;5039495;28;20025;-51
2021/12/22 11:15:26;;;;;;;17.05;7.18;;;;;;;;;;5033478;28;20457;-51
2021/12/22 11:17:52;;;;;;;16.70;7.15;;;;;;;;;;5033302;28;20156;-56
2021/12/22 11:20:22;;;;;;;15.80;6.65;;;;;;;;;;5043966;28;20032;-57
2021/12/22 11:23:04;;;;;;;12.35;6.70;;;;;;;;;;5039663;28;20814;-54
2021/12/22 11:25:30;;;;;;;13.27;6.70;;;;;;;;;;5027005;28;20026;-54
2021/12/22 11:27:56;;;;;;;11.98;7.13;;;;;;;;;;5031359;28;20389;-54
2021/12/22 11:30:25;;;;;;;15.02;7.20;;;;;;;;;;5033862;28;20025;-55
2021/12/22 11:32:52;;;;;;;15.30;7.10;;;;;;;;;;5036129;28;20021;-56
2021/12/22 11:35:18;;;;;;;19.20;7.65;;;;;;;;;;5032222;28;20846;-56
2021/12/22 11:37:44;;;;;;;16.40;7.55;;;;;;;;;;5033511;28;20638;-54
2021/12/22 11:40:11;;;;;;;16.45;7.53;;;;;;;;;;5028112;28;20025;-55
2021/12/22 11:42:39;;;;;;;11.52;7.30;;;;;;;;;;5028484;28;20068;-52
2021/12/22 11:45:08;;;;;;;13.93;7.28;;;;;;;;;;5037010;28;20496;-55
2021/12/22 11:47:42;;;;;;;15.85;7.93;;;;;;;;;;5028894;28;20814;-57
2021/12/22 11:50:15;;;;;;;15.30;7.25;;;;;;;;;;5035579;28;20079;-51
2021/12/22 11:52:44;;;;;;;;;;;;;;;;;;5030001;28;20029;-53
2021/12/22 11:55:12;;;;;;;14.85;7.43;;;;;;;;;;5032524;28;20369;-51
2021/12/22 11:57:39;;;;;;;19.70;8.35;;;;;;;;;;5030860;28;20026;-54
2021/12/22 12:00:43;;;;;;;14.73;7.75;;;;;;;;;;5022021;28;20524;-52
2021/12/22 12:03:20;;;;;;;14.35;7.53;;;;;;;;;;5017284;28;20040;-52
2021/12/22 12:06:01;;;;;;;16.40;7.88;;;;;;;;;;5030411;28;20049;-52
2021/12/22 12:08:32;;;;;;;15.07;8.35;;;;;;;;;;5024536;28;20571;-53
2021/12/22 12:10:59;;;;;;;19.02;8.70;;;;;;;;;;5024501;28;20462;-51
2021/12/22 12:13:34;;;;;;;17.23;7.60;;;;;;;;;;5039047;28;20025;-55
2021/12/22 12:21:52;;;;;;;14.35;7.65;;;;;;;;;;5042978;28;20036;-56
2021/12/22 12:24:40;;;;;;;17.17;8.02;;;;;;;;;;5038117;28;20040;-57
2021/12/22 12:27:25;;;;;;;14.13;6.47;;;;;;;;;;5044893;28;20037;-56
2021/12/22 12:29:53;;;;;;;16.98;8.35;;;;;;;;;;5036908;28;20025;-56
2021/12/22 12:32:38;;;;;;;13.23;7.60;;;;;;;;;;5024847;28;20030;-54
2021/12/22 12:35:19;;;;;;;15.38;7.20;;;;;;;;;;5027784;28;20045;-53
2021/12/22 12:38:01;;;;;;;15.05;6.95;;;;;;;;;;5030568;28;20029;-54
2021/12/22 12:40:45;;;;;;;13.63;7.05;;;;;;;;;;5028708;28;20052;-54
2021/12/22 12:43:11;;;;;;;13.68;7.05;;;;;;;;;;5032131;28;20067;-52
2021/12/22 12:45:42;;;;;;;15.25;7.47;;;;;;;;;;5031014;28;20029;-51
2021/12/22 12:48:27;;;;;;;12.43;6.93;;;;;;;;;;5037817;28;20029;-54
2021/12/22 12:51:13;;;;;;;20.65;7.15;;;;;;;;;;5030150;28;20103;-54
2021/12/22 12:53:40;;;;;;;15.43;7.78;;;;;;;;;;5035787;28;20025;-52
2021/12/22 12:56:08;;;;;;;16.15;8.07;;;;;;;;;;5025708;28;20112;-51
2021/12/22 12:58:34;;;;;;;19.90;8.75;;;;;;;;;;5028192;28;20545;-52
2021/12/22 13:01:00;;;;;;;18.75;8.43;;;;;;;;;;5024509;28;20038;-51
2021/12/22 13:03:26;;;;;;;20.60;9.00;;;;;;;;;;5030985;28;20037;-52
2021/12/22 13:05:52;;;;;;;14.77;7.47;;;;;;;;;;5032813;28;20029;-53
2021/12/22 13:08:17;;;;;;;16.73;8.88;;;;;;;;;;5037621;28;20393;-53
2021/12/22 13:10:50;;;;;;;17.77;8.25;;;;;;;;;;5031082;28;20029;-52
2021/12/22 13:13:29;;;;;;;17.83;8.57;;;;;;;;;;5037397;28;20022;-51
2021/12/22 13:15:55;;;;;;;19.60;8.90;;;;;;;;;;5043927;28;20037;-51
2021/12/22 13:18:28;;;;;;;19.17;9.23;;;;;;;;;;5043008;28;20037;-52
2021/12/22 13:20:57;;;;;;;18.73;8.52;;;;;;;;;;5033253;28;20030;-54
2021/12/22 13:23:24;;;;;;;17.00;8.88;;;;;;;;;;5032429;28;20041;-52
2021/12/22 13:25:51;;;;;;;18.17;8.63;;;;;;;;;;5040825;28;20058;-54
2021/12/22 13:28:25;;;;;;;18.13;8.88;;;;;;;;;;5031684;28;20029;-56
2021/12/22 13:30:55;;;;;;;17.70;8.20;;;;;;;;;;5017907;28;20534;-54
2021/12/22 13:33:21;;;;;;;16.10;7.85;;;;;;;;;;5028745;28;20037;-56
2021/12/22 13:35:49;;;;;;;16.08;7.20;;;;;;;;;;5030611;28;20041;-57
2021/12/22 13:38:20;;;;;;;16.83;8.25;;;;;;;;;;5027256;28;20124;-52
2021/12/22 13:41:06;;;;;;;15.85;7.57;;;;;;;;;;5028859;28;20034;-55
2021/12/22 13:43:37;;;;;;;16.75;7.75;;;;;;;;;;5022607;28;20482;-53
2021/12/22 13:46:12;;;;;;;18.42;8.32;;;;;;;;;;5026581;28;20409;-57
2021/12/22 13:48:41;;;;;;;17.13;8.85;;;;;;;;;;5032855;28;20028;-56
2021/12/22 13:51:08;;;;;;;16.20;7.70;;;;;;;;;;5022765;28;20030;-56
2021/12/22 13:53:34;;;;;;;15.13;7.70;;;;;;;;;;5022903;28;20067;-56
2021/12/22 13:56:01;;;;;;;17.63;8.10;;;;;;;;;;5029970;28;20025;-57
2021/12/22 13:58:44;;;;;;;15.48;8.05;;;;;;;;;;5032663;28;20061;-56
2021/12/22 14:01:14;;;;;;;15.87;7.60;;;;;;;;;;5026186;28;20150;-55
2021/12/22 14:03:41;;;;;;;12.98;6.88;;;;;;;;;;5032117;28;20045;-53
2021/12/22 14:06:07;;;;;;;17.80;7.72;;;;;;;;;;5025229;28;20037;-55
2021/12/22 14:08:34;;;;;;;20.45;9.38;;;;;;;;;;5031504;28;20108;-53
2021/12/22 14:11:00;;;;;;;16.50;7.70;;;;;;;;;;5027247;28;20063;-55
2021/12/22 14:13:27;;;;;;;16.02;7.35;;;;;;;;;;5030660;28;20376;-52
2021/12/22 14:15:53;;;;;;;15.68;7.85;;;;;;;;;;5030124;28;20185;-55
2021/12/22 14:18:19;;;;;;;18.40;8.57;;;;;;;;;;5031761;28;20033;-53
2021/12/22 14:20:45;;;;;;;12.98;6.93;;;;;;;;;;5031665;28;20029;-55
2021/12/22 14:23:11;;;;;;;14.05;7.68;;;;;;;;;;5022276;28;20116;-54
2021/12/22 14:25:39;;;;;;;15.93;7.38;;;;;;;;;;5026205;28;20705;-51
2021/12/22 14:28:20;;;;;;;13.43;7.28;;;;;;;;;;5033182;28;20037;-54
2021/12/22 14:30:46;;;;;;;16.75;8.40;;;;;;;;;;5022587;28;20381;-57
2021/12/22 14:33:13;;;;;;;17.23;7.65;;;;;;;;;;5019947;28;20450;-51
2021/12/22 14:36:03;;;;;;;18.63;8.38;;;;;;;;;;5027212;28;20366;-55
2021/12/22 14:38:33;;;;;;;18.27;7.60;;;;;;;;;;5021622;28;20478;-52
2021/12/22 14:41:07;;;;;;;17.52;7.30;;;;;;;;;;5028677;28;20053;-53
2021/12/22 14:43:40;;;;;;;13.48;7.32;;;;;;;;;;5023369;28;20080;-55
2021/12/22 14:46:06;;;;;;;;;;;;;;;;;;5023104;28;20132;-54
2021/12/22 14:48:38;;;;;;;16.25;7.10;;;;;;;;;;5025647;28;20046;-52
2021/12/22 14:51:08;;;;;;;16.50;7.47;;;;;;;;;;5022436;28;20470;-52
2021/12/22 14:53:40;;;;;;;14.93;7.03;;;;;;;;;;5033683;28;20033;-54
2021/12/22 14:56:07;;;;;;;15.65;7.25;;;;;;;;;;5025616;28;20029;-51
2021/12/22 14:58:33;;;;;;;14.77;7.50;;;;;;;;;;5028265;28;20048;-55
2021/12/22 15:00:59;;;;;;;14.77;7.38;;;;;;;;;;5037125;28;20026;-54
2021/12/22 15:03:25;;;;;;;15.82;7.30;;;;;;;;;;5028480;28;20053;-52
2021/12/22 15:05:53;;;;;;;17.83;7.32;;;;;;;;;;5032266;28;20621;-53
2021/12/22 15:08:19;;;;;;;16.67;7.53;;;;;;;;;;5033149;28;20112;-55